createdAt,value
2022-09-06T00:00:05.967Z,0
2022-09-06T00:01:08.966Z,0
2022-09-06T00:02:05.949Z,0
2022-09-06T00:03:06.528Z,0
2022-09-06T00:04:06.316Z,0
2022-09-06T00:05:05.971Z,0
2022-09-06T00:06:08.729Z,0
2022-09-06T00:07:05.960Z,0
2022-09-06T00:08:05.978Z,0
2022-09-06T00:09:05.962Z,0
2022-09-06T00:10:05.991Z,0
2022-09-06T00:11:10.187Z,0
2022-09-06T00:12:08.862Z,0
2022-09-06T00:13:05.964Z,0
2022-09-06T00:14:05.966Z,0
2022-09-06T00:15:05.991Z,0
2022-09-06T00:16:06.618Z,0
2022-09-06T00:17:08.860Z,0
2022-09-06T00:18:05.970Z,0
2022-09-06T00:19:06.152Z,0
2022-09-06T00:20:06.033Z,0
2022-09-06T00:21:06.001Z,0
2022-09-06T00:22:06.007Z,0
2022-09-06T00:23:08.871Z,0
2022-09-06T00:24:05.988Z,0
2022-09-06T00:25:06.008Z,0
2022-09-06T00:26:05.986Z,0
2022-09-06T00:27:05.994Z,0
2022-09-06T00:28:09.115Z,0
2022-09-06T00:29:05.998Z,0
2022-09-06T00:30:06.027Z,0
2022-09-06T00:31:06.447Z,0
2022-09-06T00:32:06.001Z,0
2022-09-06T00:33:05.999Z,0
2022-09-06T00:34:09.033Z,0
2022-09-06T00:35:06.038Z,0
2022-09-06T00:36:06.010Z,0
2022-09-06T00:37:06.011Z,0
2022-09-06T00:38:06.010Z,0
2022-09-06T00:39:08.762Z,0
2022-09-06T00:40:06.670Z,0
2022-09-06T00:41:06.040Z,0
2022-09-06T00:42:06.034Z,0
2022-09-06T00:43:06.026Z,0
2022-09-06T00:44:06.107Z,0
2022-09-06T00:45:09.332Z,0
2022-09-06T00:46:06.434Z,0
2022-09-06T00:47:06.037Z,0
2022-09-06T00:48:06.054Z,0
2022-09-06T00:49:06.564Z,0
2022-09-06T00:50:08.816Z,0
2022-09-06T00:51:06.037Z,0
2022-09-06T00:52:06.058Z,0
2022-09-06T00:53:06.037Z,0
2022-09-06T00:54:06.047Z,0
2022-09-06T00:55:06.209Z,0
2022-09-06T00:56:09.045Z,0
2022-09-06T00:57:06.064Z,0
2022-09-06T00:58:06.049Z,0
2022-09-06T00:59:06.105Z,0
2022-09-06T01:00:06.089Z,0
2022-09-06T01:01:09.367Z,0
2022-09-06T01:02:06.875Z,0
2022-09-06T01:03:06.069Z,0
2022-09-06T01:04:06.061Z,0
2022-09-06T01:05:06.076Z,0
2022-09-06T01:06:07.399Z,0
2022-09-06T01:07:06.087Z,0
2022-09-06T01:08:06.067Z,0
2022-09-06T01:09:06.069Z,0
2022-09-06T01:10:06.080Z,0
2022-09-06T01:11:06.093Z,0
2022-09-06T01:12:08.923Z,0
2022-09-06T01:13:06.073Z,0
2022-09-06T01:14:06.071Z,0
2022-09-06T01:15:06.097Z,0
2022-09-06T01:16:06.848Z,0
2022-09-06T01:17:09.155Z,0
2022-09-06T01:18:06.090Z,0
2022-09-06T01:19:06.111Z,0
2022-09-06T01:20:06.109Z,0
2022-09-06T01:21:06.099Z,0
2022-09-06T01:22:06.096Z,0
2022-09-06T01:23:09.158Z,0
2022-09-06T01:24:06.115Z,0
2022-09-06T01:25:06.125Z,0
2022-09-06T01:26:06.113Z,0
2022-09-06T01:27:06.098Z,0
2022-09-06T01:28:09.108Z,0
2022-09-06T01:29:06.098Z,0
2022-09-06T01:30:06.316Z,0
2022-09-06T01:31:06.536Z,0
2022-09-06T01:32:06.102Z,0
2022-09-06T01:33:06.135Z,0
2022-09-06T01:34:09.237Z,0
2022-09-06T01:35:06.112Z,0
2022-09-06T01:36:06.147Z,0
2022-09-06T01:37:18.963Z,0
2022-09-06T01:38:06.123Z,0
2022-09-06T01:39:09.149Z,0
2022-09-06T01:40:06.622Z,0
2022-09-06T01:41:06.151Z,0
2022-09-06T01:42:06.113Z,0
2022-09-06T01:43:11.012Z,0
2022-09-06T01:44:06.132Z,0
2022-09-06T01:45:06.173Z,0
2022-09-06T01:46:06.749Z,0
2022-09-06T01:47:06.131Z,0
2022-09-06T01:48:06.134Z,0
2022-09-06T01:49:06.140Z,0
2022-09-06T01:50:06.890Z,0
2022-09-06T01:51:06.172Z,0
2022-09-06T01:52:06.190Z,0
2022-09-06T01:53:06.181Z,0
2022-09-06T01:54:06.170Z,0
2022-09-06T01:55:06.157Z,0
2022-09-06T01:56:06.170Z,0
2022-09-06T01:57:06.157Z,0
2022-09-06T01:58:06.167Z,0
2022-09-06T01:59:06.423Z,0
2022-09-06T02:00:06.239Z,0
2022-09-06T02:01:06.417Z,0
2022-09-06T02:02:06.461Z,0
2022-09-06T02:03:06.321Z,0
2022-09-06T02:04:06.163Z,0
2022-09-06T02:05:06.198Z,0
2022-09-06T02:06:09.254Z,0
2022-09-06T02:07:06.179Z,0
2022-09-06T02:08:06.190Z,0
2022-09-06T02:09:06.248Z,0
2022-09-06T02:10:06.204Z,0
2022-09-06T02:11:06.207Z,0
2022-09-06T02:12:06.176Z,0
2022-09-06T02:13:06.178Z,0
2022-09-06T02:14:06.233Z,0
2022-09-06T02:15:06.209Z,0
2022-09-06T02:16:06.237Z,0
2022-09-06T02:17:09.519Z,0
2022-09-06T02:18:06.209Z,0
2022-09-06T02:19:06.227Z,0
2022-09-06T02:20:06.221Z,0
2022-09-06T02:21:06.246Z,0
2022-09-06T02:22:09.076Z,0
2022-09-06T02:23:06.204Z,0
2022-09-06T02:24:06.199Z,0
2022-09-06T02:25:06.209Z,0
2022-09-06T02:26:06.215Z,0
2022-09-06T02:27:06.212Z,0
2022-09-06T02:28:09.073Z,0
2022-09-06T02:29:06.208Z,0
2022-09-06T02:30:06.232Z,0
2022-09-06T02:31:06.662Z,0
2022-09-06T02:32:06.223Z,0
2022-09-06T02:33:09.015Z,0
2022-09-06T02:34:06.214Z,0
2022-09-06T02:35:06.241Z,0
2022-09-06T02:36:06.247Z,0
2022-09-06T02:37:06.216Z,0
2022-09-06T02:38:06.215Z,0
2022-09-06T02:39:09.004Z,0
2022-09-06T02:40:06.621Z,0
2022-09-06T02:41:06.240Z,0
2022-09-06T02:42:06.354Z,0
2022-09-06T02:43:06.239Z,0
2022-09-06T02:44:09.230Z,0
2022-09-06T02:45:06.261Z,0
2022-09-06T02:46:06.643Z,0
2022-09-06T02:47:06.542Z,0
2022-09-06T02:48:06.240Z,0
2022-09-06T02:49:06.255Z,0
2022-09-06T02:50:09.366Z,0
2022-09-06T02:51:06.255Z,0
2022-09-06T02:52:06.243Z,0
2022-09-06T02:53:06.252Z,0
2022-09-06T02:54:06.258Z,0
2022-09-06T02:55:09.256Z,0
2022-09-06T02:56:06.287Z,0
2022-09-06T02:57:06.261Z,0
2022-09-06T02:58:06.251Z,0
2022-09-06T02:59:06.281Z,0
2022-09-06T03:00:06.280Z,0
2022-09-06T03:01:09.910Z,0
2022-09-06T03:02:06.621Z,0
2022-09-06T03:03:06.265Z,0
2022-09-06T03:04:06.278Z,0
2022-09-06T03:05:06.290Z,0
2022-09-06T03:06:09.185Z,0
2022-09-06T03:07:06.270Z,0
2022-09-06T03:08:06.306Z,0
2022-09-06T03:09:06.272Z,0
2022-09-06T03:10:06.290Z,0
2022-09-06T03:12:09.351Z,0
2022-09-06T03:13:06.284Z,0
2022-09-06T03:14:06.378Z,0
2022-09-06T03:15:06.305Z,0
2022-09-06T03:17:09.624Z,0
2022-09-06T03:18:06.308Z,0
2022-09-06T03:19:06.293Z,0
2022-09-06T03:20:06.304Z,0
2022-09-06T03:21:06.330Z,0
2022-09-06T03:22:06.304Z,0
2022-09-06T03:23:09.336Z,0
2022-09-06T03:24:06.304Z,0
2022-09-06T03:25:06.319Z,0
2022-09-06T03:26:06.350Z,0
2022-09-06T03:27:06.314Z,0
2022-09-06T03:28:09.334Z,0
2022-09-06T03:29:06.305Z,0
2022-09-06T03:30:06.342Z,0
2022-09-06T03:31:06.715Z,0
2022-09-06T03:32:06.331Z,0
2022-09-06T03:33:12.008Z,0
2022-09-06T03:34:11.352Z,0
2022-09-06T03:35:06.371Z,0
2022-09-06T03:36:06.366Z,0
2022-09-06T03:37:06.366Z,0
2022-09-06T03:38:06.372Z,0
2022-09-06T03:39:09.378Z,0
2022-09-06T03:40:06.762Z,0
2022-09-06T03:41:06.339Z,0
2022-09-06T03:42:06.360Z,0
2022-09-06T03:43:06.340Z,0
2022-09-06T03:44:09.383Z,0
2022-09-06T03:45:06.196Z,0
2022-09-06T03:46:07.011Z,0
2022-09-06T03:47:06.372Z,0
2022-09-06T03:48:06.351Z,0
2022-09-06T03:49:06.661Z,0
2022-09-06T03:50:09.489Z,0
2022-09-06T03:51:06.353Z,0
2022-09-06T03:52:06.389Z,0
2022-09-06T03:53:06.356Z,0
2022-09-06T03:54:06.351Z,0
2022-09-06T03:55:09.414Z,0
2022-09-06T03:56:06.377Z,0
2022-09-06T03:57:06.401Z,0
2022-09-06T03:58:06.364Z,0
2022-09-06T03:59:06.379Z,0
2022-09-06T04:00:06.396Z,0
2022-09-06T04:01:07.490Z,0
2022-09-06T04:02:06.782Z,0
2022-09-06T04:03:10.628Z,0
2022-09-06T04:04:06.377Z,0
2022-09-06T04:05:06.423Z,0
2022-09-06T04:06:09.192Z,0
2022-09-06T04:07:06.401Z,0
2022-09-06T04:08:06.393Z,0
2022-09-06T04:09:06.391Z,0
2022-09-06T04:10:06.417Z,0
2022-09-06T04:11:06.391Z,0
2022-09-06T04:12:06.405Z,0
2022-09-06T04:13:06.402Z,0
2022-09-06T04:14:06.397Z,0
2022-09-06T04:15:07.470Z,0
2022-09-06T04:16:06.404Z,0
2022-09-06T04:17:09.864Z,0
2022-09-06T04:18:11.611Z,0
2022-09-06T04:19:06.542Z,0
2022-09-06T04:20:06.417Z,0
2022-09-06T04:21:06.411Z,0
2022-09-06T04:22:06.425Z,0
2022-09-06T04:23:06.416Z,0
2022-09-06T04:24:06.404Z,0
2022-09-06T04:25:06.444Z,0
2022-09-06T04:26:06.449Z,0
2022-09-06T04:27:06.432Z,0
2022-09-06T04:28:06.416Z,0
2022-09-06T04:29:06.432Z,0
2022-09-06T04:30:06.441Z,0
2022-09-06T04:31:12.222Z,0
2022-09-06T04:32:06.929Z,0
2022-09-06T04:33:09.537Z,0
2022-09-06T04:34:06.426Z,0
2022-09-06T04:35:06.472Z,0
2022-09-06T04:36:06.443Z,0
2022-09-06T04:37:06.489Z,0
2022-09-06T04:38:06.520Z,0
2022-09-06T04:39:06.444Z,0
2022-09-06T04:40:06.744Z,0
2022-09-06T04:41:06.434Z,0
2022-09-06T04:42:06.456Z,0
2022-09-06T04:43:06.468Z,0
2022-09-06T04:44:09.479Z,0
2022-09-06T04:45:06.503Z,0
2022-09-06T04:46:07.045Z,0
2022-09-06T04:47:11.949Z,0
2022-09-06T04:48:06.455Z,0
2022-09-06T04:49:07.126Z,0
2022-09-06T04:50:06.479Z,0
2022-09-06T04:51:06.476Z,0
2022-09-06T04:52:06.479Z,0
2022-09-06T04:53:06.463Z,0
2022-09-06T04:54:06.477Z,0
2022-09-06T04:55:09.216Z,0
2022-09-06T04:56:06.474Z,0
2022-09-06T04:57:06.502Z,0
2022-09-06T04:58:06.472Z,0
2022-09-06T04:59:06.474Z,0
2022-09-06T05:00:09.286Z,0
2022-09-06T05:01:06.848Z,0
2022-09-06T05:02:07.006Z,0
2022-09-06T05:03:06.487Z,0
2022-09-06T05:04:06.481Z,0
2022-09-06T05:05:06.608Z,0
2022-09-06T05:06:09.302Z,0
2022-09-06T05:07:06.546Z,0
2022-09-06T05:08:06.523Z,0
2022-09-06T05:09:06.498Z,0
2022-09-06T05:10:06.487Z,0
2022-09-06T05:11:09.381Z,0
2022-09-06T05:12:06.516Z,0
2022-09-06T05:13:06.512Z,0
2022-09-06T05:14:06.499Z,0
2022-09-06T05:15:06.513Z,0
2022-09-06T05:16:06.913Z,0
2022-09-06T05:17:09.674Z,0
2022-09-06T05:18:06.526Z,0
2022-09-06T05:19:06.501Z,0
2022-09-06T05:20:06.524Z,0
2022-09-06T05:21:06.506Z,0
2022-09-06T05:22:09.358Z,0
2022-09-06T05:23:06.512Z,0
2022-09-06T05:24:07.871Z,0
2022-09-06T05:25:06.560Z,0
2022-09-06T05:26:06.619Z,0
2022-09-06T05:27:06.583Z,0
2022-09-06T05:28:09.360Z,0
2022-09-06T05:29:06.572Z,0
2022-09-06T05:30:06.567Z,0
2022-09-06T05:31:06.633Z,0
2022-09-06T05:32:06.954Z,0
2022-09-06T05:33:09.535Z,5
2022-09-06T05:34:06.582Z,5
2022-09-06T05:35:06.657Z,5
2022-09-06T05:36:06.536Z,5
2022-09-06T05:37:06.531Z,5
2022-09-06T05:38:06.567Z,5
2022-09-06T05:39:09.416Z,5
2022-09-06T05:40:07.242Z,5
2022-09-06T05:41:06.544Z,5
2022-09-06T05:42:06.545Z,5
2022-09-06T05:43:06.579Z,5
2022-09-06T05:44:09.594Z,5
2022-09-06T05:45:06.657Z,5
2022-09-06T05:46:07.169Z,5
2022-09-06T05:47:06.600Z,5
2022-09-06T05:48:06.597Z,5
2022-09-06T05:49:06.569Z,5
2022-09-06T05:50:09.420Z,5
2022-09-06T05:51:06.598Z,5
2022-09-06T05:52:06.639Z,5
2022-09-06T05:53:06.598Z,5
2022-09-06T05:54:06.599Z,5
2022-09-06T05:55:09.420Z,5
2022-09-06T05:56:06.630Z,5
2022-09-06T05:57:06.931Z,10
2022-09-06T05:58:06.623Z,10
2022-09-06T05:59:06.582Z,10
2022-09-06T06:00:09.512Z,10
2022-09-06T06:01:09.971Z,10
2022-09-06T06:02:12.162Z,15
2022-09-06T06:03:09.828Z,15
2022-09-06T06:04:06.605Z,15
2022-09-06T06:05:06.620Z,15
2022-09-06T06:06:09.484Z,20
2022-09-06T06:07:06.599Z,20
2022-09-06T06:08:06.637Z,20
2022-09-06T06:09:06.627Z,20
2022-09-06T06:10:06.627Z,20
2022-09-06T06:11:09.778Z,20
2022-09-06T06:12:06.606Z,20
2022-09-06T06:13:06.618Z,20
2022-09-06T06:14:06.632Z,20
2022-09-06T06:15:06.624Z,25
2022-09-06T06:16:06.822Z,25
2022-09-06T06:17:09.762Z,20
2022-09-06T06:18:06.630Z,30
2022-09-06T06:19:06.626Z,30
2022-09-06T06:20:06.631Z,25
2022-09-06T06:21:06.613Z,35
2022-09-06T06:22:09.397Z,35
2022-09-06T06:23:06.665Z,40
2022-09-06T06:24:06.637Z,40
2022-09-06T06:25:06.653Z,40
2022-09-06T06:26:06.478Z,35
2022-09-06T06:27:06.625Z,35
2022-09-06T06:28:09.357Z,30
2022-09-06T06:29:06.746Z,40
2022-09-06T06:30:06.642Z,35
2022-09-06T06:31:06.671Z,35
2022-09-06T06:32:07.060Z,20
2022-09-06T06:33:09.423Z,20
2022-09-06T06:34:06.642Z,20
2022-09-06T06:35:06.687Z,20
2022-09-06T06:36:06.665Z,20
2022-09-06T06:37:06.872Z,20
2022-09-06T06:38:06.696Z,15
2022-09-06T06:39:06.477Z,15
2022-09-06T06:40:07.031Z,15
2022-09-06T06:41:13.981Z,15
2022-09-06T06:42:06.656Z,20
2022-09-06T06:43:06.684Z,20
2022-09-06T06:44:09.852Z,20
2022-09-06T06:45:06.665Z,20
2022-09-06T06:46:07.155Z,20
2022-09-06T06:47:06.679Z,20
2022-09-06T06:48:06.729Z,25
2022-09-06T06:49:06.661Z,20
2022-09-06T06:50:06.676Z,25
2022-09-06T06:51:06.669Z,30
2022-09-06T06:52:06.673Z,25
2022-09-06T06:53:06.717Z,30
2022-09-06T06:54:06.697Z,90
2022-09-06T06:55:06.694Z,85
2022-09-06T06:56:06.682Z,90
2022-09-06T06:57:06.675Z,90
2022-09-06T06:58:09.470Z,80
2022-09-06T06:59:06.697Z,45
2022-09-06T07:00:09.811Z,70
2022-09-06T07:01:07.492Z,65
2022-09-06T07:02:07.676Z,95
2022-09-06T07:03:06.740Z,55
2022-09-06T07:04:06.736Z,70
2022-09-06T07:06:12.918Z,55
2022-09-06T07:07:43.407Z,40
2022-09-06T07:08:39.711Z,40
2022-09-06T07:10:39.586Z,50
2022-09-06T07:11:48.953Z,65
2022-09-06T07:12:48.952Z,85
2022-09-06T07:13:48.966Z,65
2022-09-06T07:14:48.944Z,65
2022-09-06T07:15:48.963Z,50
2022-09-06T07:16:49.418Z,45
2022-09-06T07:17:48.960Z,45
2022-09-06T07:18:49.070Z,45
2022-09-06T07:20:19.972Z,45
2022-09-06T07:21:48.814Z,35
2022-09-06T07:24:15.253Z,45
2022-09-06T07:24:58.252Z,65
2022-09-06T07:25:58.034Z,45
2022-09-06T07:27:59.086Z,50
2022-09-06T07:28:17.905Z,60
2022-09-06T07:29:09.826Z,60
2022-09-06T07:30:09.931Z,55
2022-09-06T07:32:19.582Z,25
2022-09-06T07:34:22.469Z,65
2022-09-06T07:35:19.316Z,85
2022-09-06T07:36:19.298Z,55
2022-09-06T07:37:19.298Z,55
2022-09-06T07:38:19.303Z,40
2022-09-06T07:39:22.707Z,65
2022-09-06T07:40:19.710Z,40
2022-09-06T07:41:19.294Z,65
2022-09-06T07:42:19.372Z,60
2022-09-06T07:43:19.826Z,90
2022-09-06T07:44:19.329Z,85
2022-09-06T07:45:22.062Z,65
2022-09-06T07:46:19.471Z,50
2022-09-06T07:48:04.943Z,50
2022-09-06T07:49:19.365Z,65
2022-09-06T07:50:53.653Z,45
2022-09-06T07:51:19.323Z,35
2022-09-06T07:53:34.021Z,25
2022-09-06T07:53:44.494Z,25
2022-09-06T07:54:43.593Z,25
2022-09-06T07:56:43.570Z,45
2022-09-06T07:57:43.582Z,45
2022-09-06T07:58:43.595Z,70
2022-09-06T07:59:47.962Z,35
2022-09-06T08:01:44.372Z,85
2022-09-06T08:02:43.736Z,60
2022-09-06T08:03:46.429Z,70
2022-09-06T08:04:43.623Z,65
2022-09-06T08:06:20.581Z,60
2022-09-06T08:07:45.512Z,75
2022-09-06T08:08:59.352Z,50
2022-09-06T08:09:09.574Z,50
2022-09-06T08:10:09.158Z,65
2022-09-06T08:11:12.642Z,55
2022-09-06T08:12:09.502Z,60
2022-09-06T08:13:09.149Z,45
2022-09-06T08:14:09.183Z,45
2022-09-06T08:15:09.174Z,45
2022-09-06T08:16:09.604Z,60
2022-09-06T08:17:11.946Z,35
2022-09-06T08:18:09.151Z,45
2022-09-06T08:19:09.137Z,50
2022-09-06T08:20:09.249Z,50
2022-09-06T08:21:14.689Z,50
2022-09-06T08:22:12.242Z,60
2022-09-06T08:23:09.156Z,60
2022-09-06T08:24:09.184Z,40
2022-09-06T08:25:09.189Z,35
2022-09-06T08:26:09.174Z,40
2022-09-06T08:27:09.357Z,40
2022-09-06T08:28:11.990Z,30
2022-09-06T08:29:09.206Z,60
2022-09-06T08:30:09.224Z,35
2022-09-06T08:31:09.328Z,45
2022-09-06T08:32:09.637Z,40
2022-09-06T08:33:12.277Z,35
2022-09-06T08:34:09.203Z,40
2022-09-06T08:35:09.207Z,40
2022-09-06T08:36:09.366Z,45
2022-09-06T08:37:09.251Z,35
2022-09-06T08:38:09.246Z,45
2022-09-06T08:39:12.301Z,50
2022-09-06T08:40:09.774Z,30
2022-09-06T08:41:09.203Z,25
2022-09-06T08:42:09.232Z,25
2022-09-06T08:43:09.179Z,25
2022-09-06T08:45:09.290Z,25
2022-09-06T08:46:18.891Z,25
2022-09-06T08:47:18.679Z,50
2022-09-06T08:48:18.667Z,25
2022-09-06T08:49:18.666Z,25
2022-09-06T08:50:21.527Z,25
2022-09-06T08:51:18.696Z,30
2022-09-06T08:52:18.674Z,35
2022-09-06T08:53:27.194Z,30
2022-09-06T08:54:18.690Z,35
2022-09-06T08:55:18.687Z,35
2022-09-06T08:56:18.698Z,35
2022-09-06T08:57:18.757Z,35
2022-09-06T08:58:18.691Z,55
2022-09-06T08:59:18.684Z,35
2022-09-06T09:00:20.244Z,75
2022-09-06T09:01:22.034Z,80
2022-09-06T09:02:19.287Z,90
2022-09-06T09:03:24.998Z,95
2022-09-06T09:04:18.806Z,90
2022-09-06T09:05:18.745Z,45
2022-09-06T09:06:21.757Z,45
2022-09-06T09:07:18.691Z,40
2022-09-06T09:08:19.114Z,35
2022-09-06T09:09:18.703Z,35
2022-09-06T09:10:18.810Z,35
2022-09-06T09:11:18.738Z,40
2022-09-06T09:12:21.472Z,35
2022-09-06T09:13:18.717Z,35
2022-09-06T09:14:18.708Z,90
2022-09-06T09:15:18.733Z,90
2022-09-06T09:16:19.077Z,85
2022-09-06T09:17:21.788Z,90
2022-09-06T09:18:18.749Z,90
2022-09-06T09:19:18.728Z,90
2022-09-06T09:20:18.821Z,85
2022-09-06T09:21:18.722Z,70
2022-09-06T09:22:21.502Z,75
2022-09-06T09:23:18.731Z,80
2022-09-06T09:24:18.736Z,80
2022-09-06T09:25:18.756Z,85
2022-09-06T09:26:18.734Z,80
2022-09-06T09:27:18.753Z,80
2022-09-06T09:28:21.542Z,75
2022-09-06T09:29:20.118Z,60
2022-09-06T09:30:56.879Z,50
2022-09-06T09:31:19.104Z,50
2022-09-06T09:32:18.744Z,75
2022-09-06T09:33:21.837Z,75
2022-09-06T09:34:18.766Z,80
2022-09-06T09:35:18.785Z,75
2022-09-06T09:36:18.747Z,70
2022-09-06T09:38:03.610Z,65
2022-09-06T09:38:21.131Z,75
2022-09-06T09:39:21.818Z,75
2022-09-06T09:40:18.785Z,75
2022-09-06T09:41:18.650Z,80
2022-09-06T09:42:18.792Z,80
2022-09-06T09:43:18.774Z,65
2022-09-06T09:44:22.087Z,75
2022-09-06T09:45:18.823Z,75
2022-09-06T09:46:19.093Z,75
2022-09-06T09:47:18.798Z,65
2022-09-06T09:48:18.777Z,65
2022-09-06T09:49:18.803Z,70
2022-09-06T09:50:22.047Z,75
2022-09-06T09:51:33.661Z,75
2022-09-06T09:52:18.764Z,70
2022-09-06T09:53:18.797Z,70
2022-09-06T09:54:18.801Z,75
2022-09-06T09:55:21.861Z,75
2022-09-06T09:56:18.813Z,75
2022-09-06T09:57:21.142Z,75
2022-09-06T09:58:18.794Z,60
2022-09-06T09:59:18.799Z,70
2022-09-06T10:00:18.886Z,65
2022-09-06T10:01:21.872Z,70
2022-09-06T10:02:18.665Z,70
2022-09-06T10:03:19.127Z,70
2022-09-06T10:04:49.784Z,70
2022-09-06T10:07:15.107Z,45
2022-09-06T10:08:24.519Z,65
2022-09-06T10:09:28.309Z,60
2022-09-06T10:10:24.493Z,75
2022-09-06T10:11:24.495Z,70
2022-09-06T10:12:27.567Z,75
2022-09-06T10:13:24.492Z,75
2022-09-06T10:14:24.480Z,70
2022-09-06T10:15:24.504Z,75
2022-09-06T10:16:24.780Z,75
2022-09-06T10:17:24.868Z,65
2022-09-06T10:18:28.760Z,65
2022-09-06T10:19:24.482Z,65
2022-09-06T10:20:24.506Z,70
2022-09-06T10:21:24.515Z,75
2022-09-06T10:22:24.511Z,75
2022-09-06T10:24:32.820Z,70
2022-09-06T10:25:43.051Z,60
2022-09-06T10:26:42.276Z,70
2022-09-06T10:28:15.927Z,60
2022-09-06T10:28:42.196Z,75
2022-09-06T10:29:42.183Z,65
2022-09-06T10:30:42.247Z,70
2022-09-06T10:31:42.673Z,70
2022-09-06T10:32:42.193Z,65
2022-09-06T10:33:42.209Z,70
2022-09-06T10:34:42.218Z,65
2022-09-06T10:35:45.225Z,70
2022-09-06T10:36:42.087Z,65
2022-09-06T10:37:42.238Z,60
2022-09-06T10:38:42.195Z,75
2022-09-06T10:39:42.537Z,75
2022-09-06T10:40:45.875Z,70
2022-09-06T10:41:42.233Z,65
2022-09-06T10:42:42.227Z,70
2022-09-06T10:43:42.210Z,70
2022-09-06T10:44:42.239Z,75
2022-09-06T10:45:42.235Z,70
2022-09-06T10:46:45.672Z,70
2022-09-06T10:47:42.249Z,70
2022-09-06T10:48:42.220Z,65
2022-09-06T10:49:42.223Z,70
2022-09-06T10:50:42.238Z,60
2022-09-06T10:51:44.987Z,70
2022-09-06T10:52:42.095Z,70
2022-09-06T10:53:42.247Z,50
2022-09-06T10:54:42.237Z,45
2022-09-06T10:55:43.566Z,50
2022-09-06T10:56:42.253Z,55
2022-09-06T10:58:29.013Z,50
2022-09-06T10:59:43.068Z,50
2022-09-06T10:59:56.320Z,50
2022-09-06T11:01:53.152Z,50
2022-09-06T11:04:15.022Z,50
2022-09-06T11:05:47.464Z,50
2022-09-06T11:07:02.106Z,50
2022-09-06T11:09:03.005Z,50
2022-09-06T11:09:12.233Z,55
2022-09-06T11:10:12.484Z,45
2022-09-06T11:11:13.903Z,45
2022-09-06T11:12:12.211Z,40
2022-09-06T11:13:12.234Z,40
2022-09-06T11:14:14.664Z,40
2022-09-06T11:15:12.374Z,40
2022-09-06T11:16:13.094Z,35
2022-09-06T11:17:12.385Z,40
2022-09-06T11:18:12.223Z,50
2022-09-06T11:19:12.227Z,40
2022-09-06T11:20:12.333Z,40
2022-09-06T11:21:15.245Z,50
2022-09-06T11:22:15.485Z,50
2022-09-06T11:23:12.381Z,40
2022-09-06T11:24:12.232Z,45
2022-09-06T11:25:12.385Z,30
2022-09-06T11:26:12.402Z,35
2022-09-06T11:27:12.398Z,50
2022-09-06T11:28:12.395Z,50
2022-09-06T11:29:12.503Z,50
2022-09-06T11:30:12.263Z,40
2022-09-06T11:32:25.078Z,50
2022-09-06T11:34:27.345Z,50
2022-09-06T11:35:24.426Z,50
2022-09-06T11:36:24.134Z,50
2022-09-06T11:37:24.249Z,40
2022-09-06T11:38:24.294Z,45
2022-09-06T11:40:28.308Z,50
2022-09-06T11:41:38.119Z,50
2022-09-06T11:42:38.248Z,50
2022-09-06T11:43:38.247Z,50
2022-09-06T11:44:38.261Z,50
2022-09-06T11:45:38.304Z,45
2022-09-06T11:46:41.639Z,50
2022-09-06T11:47:37.938Z,50
2022-09-06T11:48:38.243Z,50
2022-09-06T11:49:38.276Z,50
2022-09-06T11:50:38.345Z,45
2022-09-06T11:51:41.157Z,40
2022-09-06T11:52:38.308Z,35
2022-09-06T11:54:38.143Z,35
2022-09-06T11:55:38.104Z,50
2022-09-06T11:56:38.288Z,40
2022-09-06T11:57:40.866Z,35
2022-09-06T11:58:38.303Z,35
2022-09-06T11:59:38.279Z,35
2022-09-06T12:00:38.294Z,30
2022-09-06T12:01:38.316Z,25
2022-09-06T12:02:41.910Z,20
2022-09-06T12:04:10.538Z,20
2022-09-06T12:05:38.297Z,25
2022-09-06T12:06:38.170Z,35
2022-09-06T12:07:38.141Z,35
2022-09-06T12:08:41.135Z,35
2022-09-06T12:09:38.340Z,40
2022-09-06T12:10:38.300Z,45
2022-09-06T12:11:39.421Z,50
2022-09-06T12:12:38.311Z,50
2022-09-06T12:13:41.100Z,55
2022-09-06T12:14:38.336Z,50
2022-09-06T12:15:38.645Z,50
2022-09-06T12:16:38.441Z,50
2022-09-06T12:17:38.319Z,45
2022-09-06T12:18:38.458Z,35
2022-09-06T12:19:44.248Z,35
2022-09-06T12:20:38.336Z,35
2022-09-06T12:21:38.337Z,30
2022-09-06T12:22:38.364Z,20
2022-09-06T12:23:38.353Z,15
2022-09-06T12:24:41.483Z,15
2022-09-06T12:25:38.342Z,20
2022-09-06T12:26:38.357Z,20
2022-09-06T12:27:38.330Z,25
2022-09-06T12:28:38.490Z,30
2022-09-06T12:29:38.198Z,30
2022-09-06T12:30:38.380Z,30
2022-09-06T12:31:38.846Z,25
2022-09-06T12:32:43.937Z,25
2022-09-06T12:33:38.362Z,20
2022-09-06T12:34:38.362Z,20
2022-09-06T12:36:12.639Z,20
2022-09-06T12:36:38.385Z,20
2022-09-06T12:38:38.535Z,20
2022-09-06T12:40:41.249Z,20
2022-09-06T12:41:43.405Z,20
2022-09-06T12:42:38.374Z,25
2022-09-06T12:43:38.409Z,25
2022-09-06T12:44:38.231Z,30
2022-09-06T12:45:38.386Z,35
2022-09-06T12:46:38.804Z,40
2022-09-06T12:48:38.690Z,45
2022-09-06T12:49:38.377Z,45
2022-09-06T12:50:38.427Z,40
2022-09-06T12:51:40.015Z,45
2022-09-06T12:52:38.393Z,45
2022-09-06T12:53:38.383Z,35
2022-09-06T12:54:38.396Z,35
2022-09-06T12:55:38.390Z,20
2022-09-06T12:56:38.420Z,15
2022-09-06T12:57:38.402Z,25
2022-09-06T12:58:38.767Z,35
2022-09-06T12:59:38.399Z,35
2022-09-06T13:01:39.131Z,45
2022-09-06T13:02:42.130Z,50
2022-09-06T13:03:38.420Z,40
2022-09-06T13:04:38.420Z,50
2022-09-06T13:05:38.267Z,45
2022-09-06T13:06:38.517Z,45
2022-09-06T13:07:41.241Z,35
2022-09-06T13:08:38.606Z,35
2022-09-06T13:09:38.295Z,35
2022-09-06T13:10:38.256Z,35
2022-09-06T13:11:38.320Z,30
2022-09-06T13:12:38.443Z,30
2022-09-06T13:13:38.427Z,30
2022-09-06T13:14:38.456Z,25
2022-09-06T13:15:38.788Z,30
2022-09-06T13:16:38.281Z,35
2022-09-06T13:17:38.268Z,45
2022-09-06T13:18:41.281Z,45
2022-09-06T13:19:38.468Z,45
2022-09-06T13:20:38.575Z,45
2022-09-06T13:21:38.300Z,35
2022-09-06T13:22:38.278Z,45
2022-09-06T13:23:41.130Z,40
2022-09-06T13:24:38.472Z,45
2022-09-06T13:25:38.439Z,40
2022-09-06T13:27:38.477Z,40
2022-09-06T13:28:38.643Z,40
2022-09-06T13:29:41.233Z,40
2022-09-06T13:30:38.465Z,40
2022-09-06T13:31:38.911Z,40
2022-09-06T13:32:38.463Z,40
2022-09-06T13:33:38.298Z,35
2022-09-06T13:34:41.301Z,40
2022-09-06T13:35:38.320Z,40
2022-09-06T13:36:38.594Z,40
2022-09-06T13:37:38.500Z,40
2022-09-06T13:38:38.859Z,35
2022-09-06T13:39:38.822Z,25
2022-09-06T13:41:18.245Z,35
2022-09-06T13:41:38.330Z,35
2022-09-06T13:42:38.492Z,35
2022-09-06T13:43:38.488Z,35
2022-09-06T13:44:38.333Z,35
2022-09-06T13:45:41.495Z,40
2022-09-06T13:46:38.792Z,40
2022-09-06T13:47:38.481Z,35
2022-09-06T13:48:38.772Z,35
2022-09-06T13:50:38.491Z,35
2022-09-06T13:51:41.451Z,35
2022-09-06T13:52:38.506Z,35
2022-09-06T13:53:38.512Z,35
2022-09-06T13:55:38.490Z,35
2022-09-06T13:56:41.753Z,30
2022-09-06T13:57:38.510Z,30
2022-09-06T13:58:38.757Z,35
2022-09-06T13:59:38.574Z,20
2022-09-06T14:00:38.357Z,30
2022-09-06T14:01:38.941Z,35
2022-09-06T14:02:41.566Z,35
2022-09-06T14:03:38.528Z,35
2022-09-06T14:05:38.356Z,35
2022-09-06T14:06:43.996Z,35
2022-09-06T14:07:41.353Z,35
2022-09-06T14:09:15.886Z,35
2022-09-06T14:10:38.535Z,30
2022-09-06T14:11:38.566Z,35
2022-09-06T14:12:38.564Z,35
2022-09-06T14:13:41.307Z,35
2022-09-06T14:14:38.557Z,35
2022-09-06T14:15:38.953Z,30
2022-09-06T14:16:38.567Z,35
2022-09-06T14:17:38.394Z,35
2022-09-06T14:18:41.791Z,35
2022-09-06T14:19:38.552Z,35
2022-09-06T14:20:38.551Z,35
2022-09-06T14:21:38.591Z,35
2022-09-06T14:22:38.558Z,35
2022-09-06T14:23:38.407Z,35
2022-09-06T14:24:41.393Z,35
2022-09-06T14:25:38.250Z,35
2022-09-06T14:26:38.434Z,35
2022-09-06T14:27:38.577Z,35
2022-09-06T14:28:38.779Z,35
2022-09-06T14:29:41.365Z,35
2022-09-06T14:30:38.635Z,35
2022-09-06T14:31:38.643Z,35
2022-09-06T14:32:38.433Z,35
2022-09-06T14:33:38.582Z,35
2022-09-06T14:34:38.591Z,35
2022-09-06T14:35:41.435Z,35
2022-09-06T14:36:38.651Z,35
2022-09-06T14:37:38.419Z,35
2022-09-06T14:38:38.793Z,35
2022-09-06T14:39:38.679Z,35
2022-09-06T14:40:41.504Z,35
2022-09-06T14:41:38.629Z,35
2022-09-06T14:42:38.607Z,35
2022-09-06T14:43:38.606Z,35
2022-09-06T14:44:38.601Z,30
2022-09-06T14:45:38.610Z,30
2022-09-06T14:46:42.084Z,35
2022-09-06T14:47:38.602Z,30
2022-09-06T14:48:44.233Z,30
2022-09-06T14:49:38.608Z,30
2022-09-06T14:50:38.609Z,30
2022-09-06T14:51:41.491Z,30
2022-09-06T14:52:38.637Z,30
2022-09-06T14:53:50.347Z,25
2022-09-06T14:54:38.650Z,25
2022-09-06T14:55:38.459Z,30
2022-09-06T14:56:38.626Z,25
2022-09-06T14:57:38.633Z,30
2022-09-06T14:58:38.666Z,30
2022-09-06T14:59:38.638Z,30
2022-09-06T15:00:38.627Z,30
2022-09-06T15:01:45.634Z,30
2022-09-06T15:02:41.888Z,30
2022-09-06T15:03:38.910Z,30